sensor_id;sensor_type;location;lat;lon;timestamp;pressure;altitude;pressure_sealevel;temperature;humidity
34921;BME280;21128;50.016;20.002;2022-09-23T03:05:52;99300.70;;;8.31;100.00
34921;BME280;21128;50.016;20.002;2022-09-23T03:08:54;99298.09;;;8.31;100.00
34921;BME280;21128;50.016;20.002;2022-09-23T03:11:22;99293.92;;;8.28;100.00
34921;BME280;21128;50.016;20.002;2022-09-23T03:16:52;99291.43;;;8.27;100.00
34921;BME280;21128;50.016;20.002;2022-09-23T03:19:49;99290.72;;;8.25;100.00
34921;BME280;21128;50.016;20.002;2022-09-23T03:22:24;99288.19;;;8.23;100.00
34921;BME280;21128;50.016;20.002;2022-09-23T03:25:02;99278.80;;;8.21;100.00
34921;BME280;21128;50.016;20.002;2022-09-23T03:27:44;99277.97;;;8.20;100.00
34921;BME280;21128;50.016;20.002;2022-09-23T03:30:11;99279.75;;;8.19;100.00
34921;BME280;21128;50.016;20.002;2022-09-23T03:32:46;99278.92;;;8.19;100.00
34921;BME280;21128;50.016;20.002;2022-09-23T03:35:28;99280.70;;;8.18;100.00
34921;BME280;21128;50.016;20.002;2022-09-23T03:38:15;99284.28;;;8.17;100.00
34921;BME280;21128;50.016;20.002;2022-09-23T03:40:48;99286.89;;;8.17;100.00
34921;BME280;21128;50.016;20.002;2022-09-23T03:43:27;99282.37;;;8.19;100.00
34921;BME280;21128;50.016;20.002;2022-09-23T03:46:01;99286.65;;;8.21;100.00
34921;BME280;21128;50.016;20.002;2022-09-23T03:48:36;99284.86;;;8.21;100.00
34921;BME280;21128;50.016;20.002;2022-09-23T03:51:21;99279.51;;;8.23;100.00
34921;BME280;21128;50.016;20.002;2022-09-23T03:53:55;99277.63;;;8.25;100.00
34921;BME280;21128;50.016;20.002;2022-09-23T03:56:34;99286.20;;;8.27;100.00
34921;BME280;21128;50.016;20.002;2022-09-23T03:59:00;99287.86;;;8.28;100.00
34921;BME280;21128;50.016;20.002;2022-09-23T04:01:32;99280.00;;;8.28;100.00
34921;BME280;21128;50.016;20.002;2022-09-23T04:04:11;99286.78;;;8.30;100.00
34921;BME280;21128;50.016;20.002;2022-09-23T04:06:38;99282.16;;;8.34;100.00
34921;BME280;21128;50.016;20.002;2022-09-23T04:09:10;99283.73;;;8.36;100.00
34921;BME280;21128;50.016;20.002;2022-09-23T04:11:50;99283.61;;;8.38;100.00
34921;BME280;21128;50.016;20.002;2022-09-23T04:14:18;99285.06;;;8.42;100.00
34921;BME280;21128;50.016;20.002;2022-09-23T04:16:57;99282.45;;;8.42;100.00
34921;BME280;21128;50.016;20.002;2022-09-23T04:19:30;99287.89;;;8.39;100.00
34921;BME280;21128;50.016;20.002;2022-09-23T04:22:09;99279.45;;;8.35;100.00
34921;BME280;21128;50.016;20.002;2022-09-23T04:24:55;99276.92;;;8.34;100.00
34921;BME280;21128;50.016;20.002;2022-09-23T04:27:22;99281.42;;;8.32;100.00
34921;BME280;21128;50.016;20.002;2022-09-23T04:29:54;99290.23;;;8.31;100.00
34921;BME280;21128;50.016;20.002;2022-09-23T04:32:33;99295.72;;;8.28;100.00
34921;BME280;21128;50.016;20.002;2022-09-23T04:34:59;99293.09;;;8.28;100.00
34921;BME280;21128;50.016;20.002;2022-09-23T04:37:32;99295.72;;;8.28;100.00
34921;BME280;21128;50.016;20.002;2022-09-23T04:40:12;99295.72;;;8.28;100.00
34921;BME280;21128;50.016;20.002;2022-09-23T04:42:38;99289.52;;;8.29;100.00
34921;BME280;21128;50.016;20.002;2022-09-23T04:45:11;99293.09;;;8.28;100.00
34921;BME280;21128;50.016;20.002;2022-09-23T04:47:51;99288.69;;;8.28;100.00
34921;BME280;21128;50.016;20.002;2022-09-23T04:50:17;99289.52;;;8.29;100.00
34921;BME280;21128;50.016;20.002;2022-09-23T04:53:05;99292.85;;;8.31;100.00
34921;BME280;21128;50.016;20.002;2022-09-23T04:55:32;99290.36;;;8.29;100.00
34921;BME280;21128;50.016;20.002;2022-09-23T04:58:07;99298.33;;;8.28;100.00
34921;BME280;21128;50.016;20.002;2022-09-23T05:00:47;99292.38;;;8.26;100.00
34921;BME280;21128;50.016;20.002;2022-09-23T05:03:13;99297.63;;;8.26;100.00
34921;BME280;21128;50.016;20.002;2022-09-23T05:05:57;99294.17;;;8.25;100.00
34921;BME280;21128;50.016;20.002;2022-09-23T05:08:38;99296.05;;;8.23;100.00
34921;BME280;21128;50.016;20.002;2022-09-23T05:11:17;99295.95;;;8.25;100.00
34921;BME280;21128;50.016;20.002;2022-09-23T05:14:03;99296.79;;;8.25;100.00
34921;BME280;21128;50.016;20.002;2022-09-23T05:16:43;99301.07;;;8.26;100.00
34921;BME280;21128;50.016;20.002;2022-09-23T05:19:22;99299.16;;;8.28;100.00
34921;BME280;21128;50.016;20.002;2022-09-23T05:22:01;99298.92;;;8.31;100.00
34921;BME280;21128;50.016;20.002;2022-09-23T05:24:42;99301.45;;;8.33;100.00
34921;BME280;21128;50.016;20.002;2022-09-23T05:27:21;99306.47;;;8.36;100.00
34921;BME280;21128;50.016;20.002;2022-09-23T05:30:01;99307.30;;;8.36;100.00
34921;BME280;21128;50.016;20.002;2022-09-23T05:32:46;99311.34;;;8.40;100.00
34921;BME280;21128;50.016;20.002;2022-09-23T05:35:19;99315.53;;;8.43;100.00
34921;BME280;21128;50.016;20.002;2022-09-23T05:37:58;99311.84;;;8.45;100.00
34921;BME280;21128;50.016;20.002;2022-09-23T05:40:25;99317.33;;;8.54;100.00
34921;BME280;21128;50.016;20.002;2022-09-23T05:42:57;99318.65;;;8.59;100.00
34921;BME280;21128;50.016;20.002;2022-09-23T05:45:38;99313.75;;;8.66;100.00
34921;BME280;21128;50.016;20.002;2022-09-23T05:48:04;99316.86;;;8.71;100.00
34921;BME280;21128;50.016;20.002;2022-09-23T05:50:36;99314.73;;;8.76;100.00
34921;BME280;21128;50.016;20.002;2022-09-23T05:53:15;99311.61;;;8.82;100.00
34921;BME280;21128;50.016;20.002;2022-09-23T05:55:42;99311.27;;;8.87;100.00
34921;BME280;21128;50.016;20.002;2022-09-23T05:58:27;99320.32;;;8.94;100.00
34921;BME280;21128;50.016;20.002;2022-09-23T06:00:54;99319.94;;;8.98;100.00
34921;BME280;21128;50.016;20.002;2022-09-23T06:03:27;99319.47;;;9.05;100.00
34921;BME280;21128;50.016;20.002;2022-09-23T06:06:11;99319.12;;;9.09;100.00
34921;BME280;21128;50.016;20.002;2022-09-23T06:08:51;99329.48;;;9.11;100.00
34921;BME280;21128;50.016;20.002;2022-09-23T06:11:25;99323.64;;;9.18;100.00
34921;BME280;21128;50.016;20.002;2022-09-23T06:13:56;99330.07;;;9.25;100.00
34921;BME280;21128;50.016;20.002;2022-09-23T06:16:28;99330.07;;;9.25;100.00
34921;BME280;21128;50.016;20.002;2022-09-23T06:19:01;99329.33;;;9.23;100.00
34921;BME280;21128;50.016;20.002;2022-09-23T06:21:31;99333.88;;;9.21;100.00
34921;BME280;21128;50.016;20.002;2022-09-23T06:23:58;99332.21;;;9.20;100.00
34921;BME280;21128;50.016;20.002;2022-09-23T06:26:28;99329.46;;;9.22;100.00
34921;BME280;21128;50.016;20.002;2022-09-23T06:28:59;99333.88;;;9.21;100.00
34921;BME280;21128;50.016;20.002;2022-09-23T06:31:26;99336.24;;;9.24;100.00
34921;BME280;21128;50.016;20.002;2022-09-23T06:33:53;99333.84;;;9.33;100.00
34921;BME280;21128;50.016;20.002;2022-09-23T06:36:19;99327.42;;;9.37;100.00
34921;BME280;21128;50.016;20.002;2022-09-23T06:38:46;99332.41;;;9.51;100.00
34921;BME280;21128;50.016;20.002;2022-09-23T06:41:16;99324.75;;;9.59;100.00
34921;BME280;21128;50.016;20.002;2022-09-23T06:43:45;99330.44;;;9.64;100.00
34921;BME280;21128;50.016;20.002;2022-09-23T06:46:14;99335.20;;;9.70;100.00
34921;BME280;21128;50.016;20.002;2022-09-23T06:48:42;99330.73;;;9.82;100.00
34921;BME280;21128;50.016;20.002;2022-09-23T06:51:10;99335.83;;;9.95;100.00
34921;BME280;21128;50.016;20.002;2022-09-23T06:53:50;99334.44;;;10.11;100.00
34921;BME280;21128;50.016;20.002;2022-09-23T06:56:16;99339.02;;;10.30;100.00
34921;BME280;21128;50.016;20.002;2022-09-23T06:58:44;99341.25;;;10.56;100.00
34921;BME280;21128;50.016;20.002;2022-09-23T07:01:14;99334.05;;;10.79;100.00
34921;BME280;21128;50.016;20.002;2022-09-23T07:03:45;99334.25;;;10.96;100.00
34921;BME280;21128;50.016;20.002;2022-09-23T07:06:12;99336.44;;;10.91;100.00
34921;BME280;21128;50.016;20.002;2022-09-23T07:08:46;99336.19;;;10.94;100.00
34921;BME280;21128;50.016;20.002;2022-09-23T07:11:14;99338.37;;;10.89;100.00
34921;BME280;21128;50.016;20.002;2022-09-23T07:13:41;99343.91;;;10.86;100.00
34921;BME280;21128;50.016;20.002;2022-09-23T07:16:08;99333.95;;;10.90;100.00
34921;BME280;21128;50.016;20.002;2022-09-23T07:18:35;99338.27;;;11.00;100.00
34921;BME280;21128;50.016;20.002;2022-09-23T07:21:10;99334.59;;;11.13;100.00
34921;BME280;21128;50.016;20.002;2022-09-23T07:23:41;99334.90;;;11.19;100.00
34921;BME280;21128;50.016;20.002;2022-09-23T07:26:07;99336.72;;;11.28;100.00
34921;BME280;21128;50.016;20.002;2022-09-23T07:28:35;99330.66;;;11.47;100.00
34921;BME280;21128;50.016;20.002;2022-09-23T07:31:07;99335.41;;;11.73;100.00
34921;BME280;21128;50.016;20.002;2022-09-23T07:33:36;99337.39;;;11.80;100.00
34921;BME280;21128;50.016;20.002;2022-09-23T07:36:12;99349.19;;;11.86;100.00
34921;BME280;21128;50.016;20.002;2022-09-23T07:38:40;99343.92;;;11.86;100.00
34921;BME280;21128;50.016;20.002;2022-09-23T07:41:09;99340.02;;;11.90;100.00
34921;BME280;21128;50.016;20.002;2022-09-23T07:43:39;99344.44;;;12.19;100.00
34921;BME280;21128;50.016;20.002;2022-09-23T07:46:15;99336.36;;;12.49;100.00
34921;BME280;21128;50.016;20.002;2022-09-23T07:48:44;99346.62;;;12.62;100.00
34921;BME280;21128;50.016;20.002;2022-09-23T07:51:16;99347.47;;;12.53;100.00
34921;BME280;21128;50.016;20.002;2022-09-23T07:53:46;99342.31;;;12.51;100.00
34921;BME280;21128;50.016;20.002;2022-09-23T07:56:14;99339.13;;;12.57;100.00
34921;BME280;21128;50.016;20.002;2022-09-23T07:58:41;99338.47;;;12.46;100.00
34921;BME280;21128;50.016;20.002;2022-09-23T08:01:09;99344.83;;;12.43;100.00
34921;BME280;21128;50.016;20.002;2022-09-23T08:03:38;99343.15;;;12.52;100.00
34921;BME280;21128;50.016;20.002;2022-09-23T08:06:12;99340.75;;;12.68;100.00
34921;BME280;21128;50.016;20.002;2022-09-23T08:08:45;99345.31;;;12.76;100.00
34921;BME280;21128;50.016;20.002;2022-09-23T08:11:13;99342.17;;;12.62;100.00
34921;BME280;21128;50.016;20.002;2022-09-23T08:13:40;99340.90;;;12.66;100.00
34921;BME280;21128;50.016;20.002;2022-09-23T08:16:08;99342.78;;;12.84;100.00
34921;BME280;21128;50.016;20.002;2022-09-23T08:18:35;99339.47;;;12.82;100.00
34921;BME280;21128;50.016;20.002;2022-09-23T08:21:03;99347.50;;;12.90;100.00
34921;BME280;21128;50.016;20.002;2022-09-23T08:23:36;99337.84;;;13.08;100.00
34921;BME280;21128;50.016;20.002;2022-09-23T08:26:05;99343.84;;;13.38;100.00
34921;BME280;21128;50.016;20.002;2022-09-23T08:28:33;99329.02;;;13.55;100.00
34921;BME280;21128;50.016;20.002;2022-09-23T08:31:00;99332.66;;;13.71;100.00
34921;BME280;21128;50.016;20.002;2022-09-23T08:33:34;99339.74;;;14.06;100.00
34921;BME280;21128;50.016;20.002;2022-09-23T08:36:07;99329.44;;;14.39;100.00
34921;BME280;21128;50.016;20.002;2022-09-23T08:38:34;99331.52;;;14.53;100.00
34921;BME280;21128;50.016;20.002;2022-09-23T08:44:09;99324.63;;;15.29;100.00
34921;BME280;21128;50.016;20.002;2022-09-23T08:46:44;99316.81;;;15.61;100.00
34921;BME280;21128;50.016;20.002;2022-09-23T08:49:21;99313.03;;;15.64;100.00
34921;BME280;21128;50.016;20.002;2022-09-23T08:51:58;99317.54;;;15.37;100.00
34921;BME280;21128;50.016;20.002;2022-09-23T08:54:30;99314.77;;;15.05;100.00
34921;BME280;21128;50.016;20.002;2022-09-23T08:56:58;99308.55;;;15.14;100.00
34921;BME280;21128;50.016;20.002;2022-09-23T08:59:42;99312.41;;;15.36;100.00
34921;BME280;21128;50.016;20.002;2022-09-23T09:02:17;99315.19;;;15.76;100.00
34921;BME280;21128;50.016;20.002;2022-09-23T09:04:49;99310.55;;;15.87;99.06
34921;BME280;21128;50.016;20.002;2022-09-23T09:07:24;99306.08;;;15.87;98.22
34921;BME280;21128;50.016;20.002;2022-09-23T09:10:21;99304.78;;;16.08;97.57
34921;BME280;21128;50.016;20.002;2022-09-23T09:13:05;99307.91;;;15.95;94.21
34921;BME280;21128;50.016;20.002;2022-09-23T09:18:51;99309.57;;;15.29;94.63
34921;BME280;21128;50.016;20.002;2022-09-23T09:21:36;99305.58;;;15.17;94.13
34921;BME280;21128;50.016;20.002;2022-09-23T09:24:16;99303.89;;;15.08;95.12
34921;BME280;21128;50.016;20.002;2022-09-23T09:26:50;99305.27;;;15.28;94.12
34921;BME280;21128;50.016;20.002;2022-09-23T09:29:33;99305.50;;;15.01;93.28
34921;BME280;21128;50.016;20.002;2022-09-23T09:32:23;99305.78;;;14.55;92.81
34921;BME280;21128;50.016;20.002;2022-09-23T09:35:08;99310.11;;;14.21;93.57
34921;BME280;21128;50.016;20.002;2022-09-23T09:37:55;99304.90;;;14.47;95.48
34921;BME280;21128;50.016;20.002;2022-09-23T09:40:23;99302.78;;;14.84;94.96
34921;BME280;21128;50.016;20.002;2022-09-23T09:43:05;99285.77;;;15.37;96.19
34921;BME280;21128;50.016;20.002;2022-09-23T09:46:07;99276.63;;;15.90;94.31
34921;BME280;21128;50.016;20.002;2022-09-23T09:49:01;99291.34;;;16.25;92.50
34921;BME280;21128;50.016;20.002;2022-09-23T09:51:41;99285.54;;;16.14;90.86
34921;BME280;21128;50.016;20.002;2022-09-23T09:54:19;99279.21;;;16.39;91.79
34921;BME280;21128;50.016;20.002;2022-09-23T09:56:55;99275.66;;;16.79;91.63
34921;BME280;21128;50.016;20.002;2022-09-23T09:59:36;99272.70;;;17.13;90.21
34921;BME280;21128;50.016;20.002;2022-09-23T10:02:27;99263.73;;;17.14;90.47
34921;BME280;21128;50.016;20.002;2022-09-23T10:05:48;99280.26;;;17.33;89.52
34921;BME280;21128;50.016;20.002;2022-09-23T10:08:27;99268.45;;;17.35;87.54
34921;BME280;21128;50.016;20.002;2022-09-23T10:11:15;99272.70;;;17.13;84.22
34921;BME280;21128;50.016;20.002;2022-09-23T10:14:04;99271.08;;;16.57;84.74
34921;BME280;21128;50.016;20.002;2022-09-23T10:16:32;99269.50;;;15.99;84.72
34921;BME280;21128;50.016;20.002;2022-09-23T10:19:26;99277.91;;;15.62;84.95
34921;BME280;21128;50.016;20.002;2022-09-23T10:22:16;99274.17;;;15.22;85.66
34921;BME280;21128;50.016;20.002;2022-09-23T10:24:49;99266.11;;;14.89;86.10
34921;BME280;21128;50.016;20.002;2022-09-23T10:27:33;99268.89;;;14.54;85.82
34921;BME280;21128;50.016;20.002;2022-09-23T10:30:18;99271.32;;;14.21;86.05
34921;BME280;21128;50.016;20.002;2022-09-23T10:32:50;99267.03;;;14.02;86.48
34921;BME280;21128;50.016;20.002;2022-09-23T10:35:24;99269.03;;;13.83;86.90
34921;BME280;21128;50.016;20.002;2022-09-23T10:37:53;99264.66;;;13.73;87.31
34921;BME280;21128;50.016;20.002;2022-09-23T10:40:36;99268.13;;;13.56;87.80
34921;BME280;21128;50.016;20.002;2022-09-23T10:46:36;99266.70;;;13.16;89.60
34921;BME280;21128;50.016;20.002;2022-09-23T10:52:36;99268.37;;;12.90;91.40
34921;BME280;21128;50.016;20.002;2022-09-23T11:00:39;99263.09;;;12.90;92.36
34921;BME280;21128;50.016;20.002;2022-09-23T11:06:36;99260.09;;;13.03;93.18
34921;BME280;21128;50.016;20.002;2022-09-23T11:09:17;99255.16;;;13.17;93.22
34921;BME280;21128;50.016;20.002;2022-09-23T11:26:40;99224.47;;;16.54;91.89
34921;BME280;21128;50.016;20.002;2022-09-23T11:29:54;99230.53;;;17.19;89.00
34921;BME280;21128;50.016;20.002;2022-09-23T11:32:29;99218.89;;;18.11;88.93
34921;BME280;21128;50.016;20.002;2022-09-23T11:38:07;99222.23;;;18.87;84.14
34921;BME280;21128;50.016;20.002;2022-09-23T11:40:46;99228.44;;;18.20;79.28
34921;BME280;21128;50.016;20.002;2022-09-23T11:43:25;99221.84;;;17.79;82.04
34921;BME280;21128;50.016;20.002;2022-09-23T11:46:09;99211.25;;;17.93;81.80
34921;BME280;21128;50.016;20.002;2022-09-23T11:49:02;99199.93;;;18.44;81.61
34921;BME280;21128;50.016;20.002;2022-09-23T11:52:12;99207.69;;;19.04;80.92
34921;BME280;21128;50.016;20.002;2022-09-23T11:55:17;99199.93;;;19.46;80.62
34921;BME280;21128;50.016;20.002;2022-09-23T11:57:51;99199.73;;;19.90;76.50
34921;BME280;21128;50.016;20.002;2022-09-23T12:00:20;99201.09;;;20.07;72.13
34921;BME280;21128;50.016;20.002;2022-09-23T12:03:12;99197.35;;;20.30;67.85
34921;BME280;21128;50.016;20.002;2022-09-23T12:05:47;99192.61;;;20.60;69.80
34921;BME280;21128;50.016;20.002;2022-09-23T12:08:34;99187.05;;;21.02;69.07
34921;BME280;21128;50.016;20.002;2022-09-23T12:25:25;99171.89;;;19.99;60.87
34921;BME280;21128;50.016;20.002;2022-09-23T12:28:23;99174.89;;;19.61;59.77
34921;BME280;21128;50.016;20.002;2022-09-23T12:30:59;99180.28;;;18.74;61.02
34921;BME280;21128;50.016;20.002;2022-09-23T12:33:30;99175.12;;;17.99;62.07
34921;BME280;21128;50.016;20.002;2022-09-23T12:36:09;99168.15;;;17.60;62.07
34921;BME280;21128;50.016;20.002;2022-09-23T12:38:45;99171.05;;;17.28;63.21
34921;BME280;21128;50.016;20.002;2022-09-23T12:41:30;99172.22;;;17.02;63.68
34921;BME280;21128;50.016;20.002;2022-09-23T12:46:45;99151.70;;;17.42;63.21
34921;BME280;21128;50.016;20.002;2022-09-23T12:49:35;99152.78;;;18.08;63.42
34921;BME280;21128;50.016;20.002;2022-09-23T12:52:29;99150.83;;;18.61;62.16
34921;BME280;21128;50.016;20.002;2022-09-23T12:57:53;99147.77;;;19.15;61.40
34921;BME280;21128;50.016;20.002;2022-09-23T13:00:33;99146.37;;;19.40;57.82
34921;BME280;21128;50.016;20.002;2022-09-23T13:03:01;99143.77;;;19.47;57.33
34921;BME280;21128;50.016;20.002;2022-09-23T13:05:59;99132.28;;;19.25;57.01
34921;BME280;21128;50.016;20.002;2022-09-23T13:08:58;99143.70;;;19.40;58.14
34921;BME280;21128;50.016;20.002;2022-09-23T13:11:28;99133.97;;;19.76;57.34
34921;BME280;21128;50.016;20.002;2022-09-23T13:14:03;99132.91;;;19.49;56.06
34921;BME280;21128;50.016;20.002;2022-09-23T13:16:44;99128.38;;;19.43;55.78
34921;BME280;21128;50.016;20.002;2022-09-23T13:22:10;99117.87;;;20.25;56.72
34921;BME280;21128;50.016;20.002;2022-09-23T13:24:52;99122.25;;;20.80;57.75
34921;BME280;21128;50.016;20.002;2022-09-23T13:27:29;99125.62;;;21.16;55.66
34921;BME280;21128;50.016;20.002;2022-09-23T13:30:21;99119.00;;;20.85;51.33
34921;BME280;21128;50.016;20.002;2022-09-23T13:33:05;99115.66;;;20.70;53.10
34921;BME280;21128;50.016;20.002;2022-09-23T13:35:42;99111.52;;;20.67;52.71
34921;BME280;21128;50.016;20.002;2022-09-23T13:38:23;99111.80;;;20.86;53.09
34921;BME280;21128;50.016;20.002;2022-09-23T13:41:20;99100.52;;;20.97;51.55
34921;BME280;21128;50.016;20.002;2022-09-23T13:43:54;99108.48;;;20.84;51.02
34921;BME280;21128;50.016;20.002;2022-09-23T13:46:43;99109.33;;;20.36;50.82
34921;BME280;21128;50.016;20.002;2022-09-23T13:49:27;99098.84;;;19.93;50.57
34921;BME280;21128;50.016;20.002;2022-09-23T13:51:56;99095.17;;;19.45;49.03
34921;BME280;21128;50.016;20.002;2022-09-23T13:54:31;99097.28;;;19.07;49.84
34921;BME280;21128;50.016;20.002;2022-09-23T13:57:29;99090.59;;;18.75;50.63
34921;BME280;21128;50.016;20.002;2022-09-23T14:00:16;99091.30;;;18.33;50.32
34921;BME280;21128;50.016;20.002;2022-09-23T14:02:51;99081.98;;;17.78;50.39
34921;BME280;21128;50.016;20.002;2022-09-23T14:05:33;99091.42;;;17.42;51.28
34921;BME280;21128;50.016;20.002;2022-09-23T14:08:07;99085.19;;;17.12;51.49
34921;BME280;21128;50.016;20.002;2022-09-23T14:10:43;99078.35;;;16.95;51.23
34921;BME280;21128;50.016;20.002;2022-09-23T14:13:24;99083.44;;;16.82;51.78
34921;BME280;21128;50.016;20.002;2022-09-23T14:15:55;99080.83;;;16.74;51.91
34921;BME280;21128;50.016;20.002;2022-09-23T14:18:43;99078.02;;;16.67;52.97
34921;BME280;21128;50.016;20.002;2022-09-23T14:21:33;99076.14;;;16.45;52.76
34921;BME280;21128;50.016;20.002;2022-09-23T14:24:13;99068.48;;;16.19;52.50
34921;BME280;21128;50.016;20.002;2022-09-23T14:29:27;99075.06;;;15.84;53.72
34921;BME280;21128;50.016;20.002;2022-09-23T14:31:58;99065.96;;;15.78;54.43
34921;BME280;21128;50.016;20.002;2022-09-23T14:40:53;99058.38;;;15.51;54.26
34921;BME280;21128;50.016;20.002;2022-09-23T14:46:34;99068.66;;;15.21;54.78
34921;BME280;21128;50.016;20.002;2022-09-23T14:51:57;99057.41;;;15.11;55.45
34921;BME280;21128;50.016;20.002;2022-09-23T15:02:37;99060.71;;;15.21;55.49
34921;BME280;21128;50.016;20.002;2022-09-23T15:07:37;99064.70;;;15.09;55.38
34921;BME280;21128;50.016;20.002;2022-09-23T15:10:06;99059.58;;;15.07;56.11
34921;BME280;21128;50.016;20.002;2022-09-23T15:12:43;99056.42;;;15.12;56.44
34921;BME280;21128;50.016;20.002;2022-09-23T15:15:12;99056.28;;;15.13;56.23
34921;BME280;21128;50.016;20.002;2022-09-23T15:17:47;99061.88;;;15.18;56.78
34921;BME280;21128;50.016;20.002;2022-09-23T15:20:27;99065.19;;;15.20;55.99
34921;BME280;21128;50.016;20.002;2022-09-23T15:22:54;99056.11;;;15.15;56.44
34921;BME280;21128;50.016;20.002;2022-09-23T15:25:38;99056.93;;;15.15;56.23
34921;BME280;21128;50.016;20.002;2022-09-23T15:28:18;99060.58;;;15.06;56.08
34921;BME280;21128;50.016;20.002;2022-09-23T15:30:56;99051.47;;;15.01;55.93
34921;BME280;21128;50.016;20.002;2022-09-23T15:33:37;99053.63;;;14.97;56.02
34921;BME280;21128;50.016;20.002;2022-09-23T15:36:04;99048.81;;;14.92;55.56
34921;BME280;21128;50.016;20.002;2022-09-23T15:38:42;99049.30;;;14.88;56.35
34921;BME280;21128;50.016;20.002;2022-09-23T15:41:23;99051.28;;;14.86;56.04
34921;BME280;21128;50.016;20.002;2022-09-23T15:43:50;99052.28;;;14.85;56.40
34921;BME280;21128;50.016;20.002;2022-09-23T15:46:26;99049.97;;;14.82;56.40
34921;BME280;21128;50.016;20.002;2022-09-23T15:49:21;99052.78;;;14.80;56.54
34921;BME280;21128;50.016;20.002;2022-09-23T15:51:51;99052.92;;;14.79;56.87
34921;BME280;21128;50.016;20.002;2022-09-23T15:54:26;99053.43;;;14.74;56.72
34921;BME280;21128;50.016;20.002;2022-09-23T15:57:06;99056.38;;;14.71;56.92
34921;BME280;21128;50.016;20.002;2022-09-23T15:59:33;99050.27;;;14.71;56.59
34921;BME280;21128;50.016;20.002;2022-09-23T16:02:20;99053.09;;;14.77;56.43
34921;BME280;21128;50.016;20.002;2022-09-23T16:05:05;99057.41;;;14.95;56.83
34921;BME280;21128;50.016;20.002;2022-09-23T16:07:33;99051.28;;;15.35;56.65
34921;BME280;21128;50.016;20.002;2022-09-23T16:10:08;99058.52;;;16.21;56.23
34921;BME280;21128;50.016;20.002;2022-09-23T16:12:47;99063.73;;;16.99;56.25
34921;BME280;21128;50.016;20.002;2022-09-23T16:15:22;99054.91;;;17.59;55.78
34921;BME280;21128;50.016;20.002;2022-09-23T16:18:02;99063.29;;;17.86;55.65
34921;BME280;21128;50.016;20.002;2022-09-23T16:20:39;99054.39;;;17.79;55.64
34921;BME280;21128;50.016;20.002;2022-09-23T16:23:23;99059.81;;;17.48;55.00
34921;BME280;21128;50.016;20.002;2022-09-23T16:26:26;99060.20;;;17.07;54.82
34921;BME280;21128;50.016;20.002;2022-09-23T16:29:01;99067.59;;;16.66;54.66
34921;BME280;21128;50.016;20.002;2022-09-23T16:31:34;99062.78;;;16.30;55.04
34921;BME280;21128;50.016;20.002;2022-09-23T16:34:07;99063.59;;;15.99;55.02
34921;BME280;21128;50.016;20.002;2022-09-23T16:36:42;99062.66;;;15.76;55.42
34921;BME280;21128;50.016;20.002;2022-09-23T16:39:15;99058.20;;;15.52;56.91
34921;BME280;21128;50.016;20.002;2022-09-23T16:41:48;99064.05;;;15.31;57.14
34921;BME280;21128;50.016;20.002;2022-09-23T16:44:15;99067.00;;;15.12;58.02
34921;BME280;21128;50.016;20.002;2022-09-23T16:46:42;99058.41;;;14.93;58.07
34921;BME280;21128;50.016;20.002;2022-09-23T16:49:16;99062.19;;;14.75;58.54
34921;BME280;21128;50.016;20.002;2022-09-23T16:51:46;99056.22;;;14.56;59.10
34921;BME280;21128;50.016;20.002;2022-09-23T16:54:26;99057.95;;;14.40;59.47
34921;BME280;21128;50.016;20.002;2022-09-23T16:56:53;99057.25;;;14.21;59.73
34921;BME280;21128;50.016;20.002;2022-09-23T16:59:20;99051.56;;;14.08;60.25
34921;BME280;21128;50.016;20.002;2022-09-23T17:01:54;99052.32;;;13.92;60.57
34921;BME280;21128;50.016;20.002;2022-09-23T17:04:52;99055.54;;;13.78;61.13
34921;BME280;21128;50.016;20.002;2022-09-23T17:07:26;99047.39;;;13.63;61.65
34921;BME280;21128;50.016;20.002;2022-09-23T17:10:06;99037.41;;;13.49;61.83
34921;BME280;21128;50.016;20.002;2022-09-23T17:12:33;99046.55;;;13.37;62.16
34921;BME280;21128;50.016;20.002;2022-09-23T17:15:07;99042.52;;;13.24;62.60
34921;BME280;21128;50.016;20.002;2022-09-23T17:17:36;99049.67;;;13.14;63.03
34921;BME280;21128;50.016;20.002;2022-09-23T17:20:16;99056.30;;;13.01;63.52
34921;BME280;21128;50.016;20.002;2022-09-23T17:22:42;99053.09;;;12.89;63.43
34921;BME280;21128;50.016;20.002;2022-09-23T17:25:16;99055.93;;;12.78;64.08
34921;BME280;21128;50.016;20.002;2022-09-23T17:27:55;99046.29;;;12.68;64.53
34921;BME280;21128;50.016;20.002;2022-09-23T17:30:30;99054.12;;;12.60;64.45
34921;BME280;21128;50.016;20.002;2022-09-23T17:33:11;99051.39;;;12.52;65.07
34921;BME280;21128;50.016;20.002;2022-09-23T17:35:39;99057.56;;;12.43;66.03
34921;BME280;21128;50.016;20.002;2022-09-23T17:38:13;99054.84;;;12.35;65.81
34921;BME280;21128;50.016;20.002;2022-09-23T17:40:40;99052.11;;;12.27;66.46
34921;BME280;21128;50.016;20.002;2022-09-23T17:43:07;99054.66;;;12.19;67.44
34921;BME280;21128;50.016;20.002;2022-09-23T17:45:35;99058.32;;;12.08;67.67
34921;BME280;21128;50.016;20.002;2022-09-23T17:48:02;99059.05;;;12.00;68.39
34921;BME280;21128;50.016;20.002;2022-09-23T17:50:29;99055.63;;;11.90;67.65
34921;BME280;21128;50.016;20.002;2022-09-23T17:52:57;99067.71;;;11.83;67.15
34921;BME280;21128;50.016;20.002;2022-09-23T17:55:25;99063.69;;;11.79;67.61
34921;BME280;21128;50.016;20.002;2022-09-23T17:57:59;99063.44;;;11.72;67.85
34921;BME280;21128;50.016;20.002;2022-09-23T18:00:26;99066.48;;;11.68;67.46
34921;BME280;21128;50.016;20.002;2022-09-23T18:02:59;99069.94;;;11.68;67.01
34921;BME280;21128;50.016;20.002;2022-09-23T18:05:32;99068.84;;;11.71;67.03
34921;BME280;21128;50.016;20.002;2022-09-23T18:07:59;99069.83;;;11.70;67.79
34921;BME280;21128;50.016;20.002;2022-09-23T18:10:29;99065.80;;;11.66;67.28